Аэропорт: Сыктывкар. Сыктывкар

ICAO: UUYY

METAR:
2020-08-09 22:30:00
UUYY 092230Z 01003MPS 9999 SCT016CB BKN036 10/09 Q1011 R36/CLRD61 NOSIG RMK QFE749/0999
METAR:
2020-08-09 20:00:00
TAF UUYY 092000Z 0921/1021 36003G08MPS 9999 BKN020 TEMPO 0921/1004 0500 FG BKN003 TEMPO 1006/1018 6000 -SHRA BKN016CB